sensor_id;sensor_type;location;lat;lon;timestamp;P1;durP1;ratioP1;P2;durP2;ratioP2
2522;SDS011;1272;53.332;9.860;2022-09-19T00:01:42;1.53;;;0.83;;
2522;SDS011;1272;53.332;9.860;2022-09-19T00:04:13;0.80;;;0.80;;
2522;SDS011;1272;53.332;9.860;2022-09-19T00:06:41;0.90;;;0.90;;
2522;SDS011;1272;53.332;9.860;2022-09-19T00:09:08;0.90;;;0.90;;
2522;SDS011;1272;53.332;9.860;2022-09-19T00:11:38;0.77;;;0.77;;
2522;SDS011;1272;53.332;9.860;2022-09-19T00:14:04;0.80;;;0.80;;
2522;SDS011;1272;53.332;9.860;2022-09-19T00:16:31;6.17;;;1.80;;
2522;SDS011;1272;53.332;9.860;2022-09-19T00:19:00;1.10;;;1.10;;
2522;SDS011;1272;53.332;9.860;2022-09-19T00:21:37;1.50;;;0.90;;
2522;SDS011;1272;53.332;9.860;2022-09-19T00:24:05;1.43;;;0.90;;
2522;SDS011;1272;53.332;9.860;2022-09-19T00:26:50;2.70;;;1.10;;
2522;SDS011;1272;53.332;9.860;2022-09-19T00:29:16;1.20;;;1.20;;
2522;SDS011;1272;53.332;9.860;2022-09-19T00:31:42;1.07;;;0.97;;
2522;SDS011;1272;53.332;9.860;2022-09-19T00:34:10;0.97;;;0.97;;
2522;SDS011;1272;53.332;9.860;2022-09-19T00:36:37;1.23;;;1.13;;
2522;SDS011;1272;53.332;9.860;2022-09-19T00:39:04;1.07;;;1.07;;
2522;SDS011;1272;53.332;9.860;2022-09-19T00:41:32;1.23;;;1.13;;
2522;SDS011;1272;53.332;9.860;2022-09-19T00:44:00;2.00;;;1.20;;
2522;SDS011;1272;53.332;9.860;2022-09-19T00:46:49;1.10;;;1.10;;
2522;SDS011;1272;53.332;9.860;2022-09-19T00:49:19;0.90;;;0.90;;
2522;SDS011;1272;53.332;9.860;2022-09-19T00:51:48;1.20;;;1.10;;
2522;SDS011;1272;53.332;9.860;2022-09-19T00:54:18;0.80;;;0.80;;
2522;SDS011;1272;53.332;9.860;2022-09-19T00:56:54;0.90;;;0.90;;
2522;SDS011;1272;53.332;9.860;2022-09-19T00:59:22;1.30;;;1.10;;
2522;SDS011;1272;53.332;9.860;2022-09-19T01:01:51;1.30;;;1.20;;
2522;SDS011;1272;53.332;9.860;2022-09-19T01:04:20;1.37;;;1.20;;
2522;SDS011;1272;53.332;9.860;2022-09-19T01:17:30;2.30;;;1.00;;
2522;SDS011;1272;53.332;9.860;2022-09-19T01:31:25;2.50;;;1.30;;
2522;SDS011;1272;53.332;9.860;2022-09-19T01:36:28;1.90;;;1.80;;
2522;SDS011;1272;53.332;9.860;2022-09-19T01:39:04;2.30;;;1.60;;
2522;SDS011;1272;53.332;9.860;2022-09-19T01:41:32;1.20;;;1.20;;
2522;SDS011;1272;53.332;9.860;2022-09-19T01:44:02;1.70;;;1.60;;
2522;SDS011;1272;53.332;9.860;2022-09-19T01:46:37;1.10;;;1.10;;
2522;SDS011;1272;53.332;9.860;2022-09-19T01:49:20;1.67;;;1.57;;
2522;SDS011;1272;53.332;9.860;2022-09-19T01:52:08;1.70;;;1.60;;
2522;SDS011;1272;53.332;9.860;2022-09-19T01:54:51;2.50;;;2.30;;
2522;SDS011;1272;53.332;9.860;2022-09-19T02:00:16;0.93;;;0.93;;
2522;SDS011;1272;53.332;9.860;2022-09-19T02:08:14;1.20;;;1.20;;
2522;SDS011;1272;53.332;9.860;2022-09-19T02:11:13;2.20;;;1.60;;
2522;SDS011;1272;53.332;9.860;2022-09-19T02:13:43;1.10;;;1.10;;
2522;SDS011;1272;53.332;9.860;2022-09-19T02:16:33;1.10;;;1.10;;
2522;SDS011;1272;53.332;9.860;2022-09-19T02:19:04;3.40;;;1.30;;
2522;SDS011;1272;53.332;9.860;2022-09-19T02:21:49;1.20;;;1.20;;
2522;SDS011;1272;53.332;9.860;2022-09-19T02:24:20;1.80;;;1.70;;
2522;SDS011;1272;53.332;9.860;2022-09-19T02:26:52;1.83;;;1.30;;
2522;SDS011;1272;53.332;9.860;2022-09-19T02:29:23;2.47;;;1.40;;
2522;SDS011;1272;53.332;9.860;2022-09-19T02:31:55;1.40;;;1.30;;
2522;SDS011;1272;53.332;9.860;2022-09-19T02:34:25;1.40;;;1.30;;
2522;SDS011;1272;53.332;9.860;2022-09-19T02:37:13;1.10;;;1.10;;
2522;SDS011;1272;53.332;9.860;2022-09-19T02:39:50;2.03;;;1.23;;
2522;SDS011;1272;53.332;9.860;2022-09-19T02:42:27;1.20;;;1.20;;
2522;SDS011;1272;53.332;9.860;2022-09-19T02:47:48;1.20;;;1.17;;
2522;SDS011;1272;53.332;9.860;2022-09-19T02:50:37;1.50;;;1.40;;
2522;SDS011;1272;53.332;9.860;2022-09-19T02:53:17;1.43;;;1.13;;
2522;SDS011;1272;53.332;9.860;2022-09-19T02:55:47;1.47;;;1.00;;
2522;SDS011;1272;53.332;9.860;2022-09-19T02:58:20;1.20;;;1.20;;
2522;SDS011;1272;53.332;9.860;2022-09-19T03:00:49;1.43;;;1.00;;
2522;SDS011;1272;53.332;9.860;2022-09-19T03:03:21;1.10;;;1.10;;
2522;SDS011;1272;53.332;9.860;2022-09-19T03:06:11;1.40;;;1.30;;
2522;SDS011;1272;53.332;9.860;2022-09-19T03:08:39;1.00;;;1.00;;
2522;SDS011;1272;53.332;9.860;2022-09-19T03:11:10;1.23;;;1.23;;
2522;SDS011;1272;53.332;9.860;2022-09-19T03:13:39;2.40;;;1.30;;
2522;SDS011;1272;53.332;9.860;2022-09-19T03:16:10;1.23;;;1.07;;
2522;SDS011;1272;53.332;9.860;2022-09-19T03:18:39;2.00;;;1.00;;
2522;SDS011;1272;53.332;9.860;2022-09-19T03:21:08;1.20;;;1.10;;
2522;SDS011;1272;53.332;9.860;2022-09-19T03:23:44;1.30;;;1.30;;
2522;SDS011;1272;53.332;9.860;2022-09-19T03:26:13;3.03;;;1.20;;
2522;SDS011;1272;53.332;9.860;2022-09-19T03:28:47;1.20;;;1.20;;
2522;SDS011;1272;53.332;9.860;2022-09-19T03:31:13;1.00;;;1.00;;
2522;SDS011;1272;53.332;9.860;2022-09-19T03:33:39;3.93;;;1.30;;
2522;SDS011;1272;53.332;9.860;2022-09-19T03:36:05;1.10;;;1.00;;
2522;SDS011;1272;53.332;9.860;2022-09-19T03:38:33;1.20;;;1.10;;
2522;SDS011;1272;53.332;9.860;2022-09-19T03:41:00;1.20;;;1.20;;
2522;SDS011;1272;53.332;9.860;2022-09-19T03:43:26;1.10;;;1.10;;
2522;SDS011;1272;53.332;9.860;2022-09-19T03:45:55;0.90;;;0.90;;
2522;SDS011;1272;53.332;9.860;2022-09-19T03:48:22;1.47;;;1.10;;
2522;SDS011;1272;53.332;9.860;2022-09-19T03:50:48;1.03;;;1.03;;
2522;SDS011;1272;53.332;9.860;2022-09-19T03:53:14;1.13;;;1.13;;
2522;SDS011;1272;53.332;9.860;2022-09-19T03:55:40;1.20;;;1.20;;
2522;SDS011;1272;53.332;9.860;2022-09-19T03:58:06;3.13;;;1.53;;
2522;SDS011;1272;53.332;9.860;2022-09-19T04:00:35;1.40;;;1.30;;
2522;SDS011;1272;53.332;9.860;2022-09-19T04:03:01;1.17;;;1.07;;
2522;SDS011;1272;53.332;9.860;2022-09-19T04:05:27;1.87;;;1.40;;
2522;SDS011;1272;53.332;9.860;2022-09-19T04:07:53;1.50;;;1.40;;
2522;SDS011;1272;53.332;9.860;2022-09-19T04:10:20;1.77;;;1.33;;
2522;SDS011;1272;53.332;9.860;2022-09-19T04:12:46;1.13;;;1.13;;
2522;SDS011;1272;53.332;9.860;2022-09-19T04:15:13;1.20;;;1.10;;
2522;SDS011;1272;53.332;9.860;2022-09-19T04:17:40;1.40;;;1.00;;
2522;SDS011;1272;53.332;9.860;2022-09-19T04:20:06;1.10;;;1.00;;
2522;SDS011;1272;53.332;9.860;2022-09-19T04:22:33;1.40;;;1.30;;
2522;SDS011;1272;53.332;9.860;2022-09-19T04:25:02;1.73;;;1.03;;
2522;SDS011;1272;53.332;9.860;2022-09-19T04:27:32;2.77;;;1.20;;
2522;SDS011;1272;53.332;9.860;2022-09-19T04:29:58;1.10;;;1.10;;
2522;SDS011;1272;53.332;9.860;2022-09-19T04:32:25;1.00;;;1.00;;
2522;SDS011;1272;53.332;9.860;2022-09-19T04:34:51;1.73;;;1.33;;
2522;SDS011;1272;53.332;9.860;2022-09-19T04:37:20;1.23;;;1.13;;
2522;SDS011;1272;53.332;9.860;2022-09-19T04:39:47;4.93;;;1.10;;
2522;SDS011;1272;53.332;9.860;2022-09-19T04:42:13;1.27;;;1.20;;
2522;SDS011;1272;53.332;9.860;2022-09-19T04:44:40;1.50;;;1.40;;
2522;SDS011;1272;53.332;9.860;2022-09-19T04:47:06;1.40;;;1.30;;
2522;SDS011;1272;53.332;9.860;2022-09-19T04:49:31;1.20;;;1.10;;
2522;SDS011;1272;53.332;9.860;2022-09-19T04:52:01;1.00;;;1.00;;
2522;SDS011;1272;53.332;9.860;2022-09-19T04:54:27;1.10;;;1.00;;
2522;SDS011;1272;53.332;9.860;2022-09-19T04:56:53;1.23;;;1.13;;
2522;SDS011;1272;53.332;9.860;2022-09-19T04:59:19;2.00;;;1.33;;
2522;SDS011;1272;53.332;9.860;2022-09-19T05:01:45;1.10;;;1.00;;
2522;SDS011;1272;53.332;9.860;2022-09-19T05:04:11;2.20;;;1.00;;
2522;SDS011;1272;53.332;9.860;2022-09-19T05:06:36;2.37;;;1.20;;
2522;SDS011;1272;53.332;9.860;2022-09-19T05:09:02;1.47;;;1.37;;
2522;SDS011;1272;53.332;9.860;2022-09-19T05:11:28;1.30;;;1.20;;
2522;SDS011;1272;53.332;9.860;2022-09-19T05:13:54;1.80;;;1.27;;
2522;SDS011;1272;53.332;9.860;2022-09-19T05:16:19;1.43;;;1.33;;
2522;SDS011;1272;53.332;9.860;2022-09-19T05:18:45;1.73;;;1.33;;
2522;SDS011;1272;53.332;9.860;2022-09-19T05:21:12;1.87;;;1.03;;
2522;SDS011;1272;53.332;9.860;2022-09-19T05:23:42;6.93;;;1.43;;
2522;SDS011;1272;53.332;9.860;2022-09-19T05:26:10;1.40;;;1.30;;
2522;SDS011;1272;53.332;9.860;2022-09-19T05:28:40;2.27;;;1.30;;
2522;SDS011;1272;53.332;9.860;2022-09-19T05:31:06;2.77;;;2.17;;
2522;SDS011;1272;53.332;9.860;2022-09-19T05:33:32;1.47;;;1.37;;
2522;SDS011;1272;53.332;9.860;2022-09-19T05:35:59;4.13;;;1.67;;
2522;SDS011;1272;53.332;9.860;2022-09-19T05:38:26;1.87;;;1.60;;
2522;SDS011;1272;53.332;9.860;2022-09-19T05:40:53;11.10;;;1.50;;
2522;SDS011;1272;53.332;9.860;2022-09-19T05:43:21;1.60;;;1.50;;
2522;SDS011;1272;53.332;9.860;2022-09-19T05:45:47;1.67;;;1.57;;
2522;SDS011;1272;53.332;9.860;2022-09-19T05:48:15;2.90;;;1.60;;
2522;SDS011;1272;53.332;9.860;2022-09-19T05:50:44;1.90;;;1.80;;
2522;SDS011;1272;53.332;9.860;2022-09-19T05:53:11;4.27;;;2.30;;
2522;SDS011;1272;53.332;9.860;2022-09-19T05:55:56;5.87;;;2.30;;
2522;SDS011;1272;53.332;9.860;2022-09-19T05:58:21;2.10;;;1.70;;
2522;SDS011;1272;53.332;9.860;2022-09-19T06:00:48;5.70;;;2.87;;
2522;SDS011;1272;53.332;9.860;2022-09-19T06:03:14;2.83;;;1.80;;
2522;SDS011;1272;53.332;9.860;2022-09-19T06:05:45;2.50;;;2.30;;
2522;SDS011;1272;53.332;9.860;2022-09-19T06:08:14;3.57;;;2.17;;
2522;SDS011;1272;53.332;9.860;2022-09-19T06:10:42;8.80;;;2.20;;
2522;SDS011;1272;53.332;9.860;2022-09-19T06:13:14;2.47;;;2.23;;
2522;SDS011;1272;53.332;9.860;2022-09-19T06:15:41;2.20;;;1.83;;
2522;SDS011;1272;53.332;9.860;2022-09-19T06:18:07;4.90;;;2.27;;
2522;SDS011;1272;53.332;9.860;2022-09-19T06:20:36;6.73;;;2.23;;
2522;SDS011;1272;53.332;9.860;2022-09-19T06:23:03;3.10;;;2.13;;
2522;SDS011;1272;53.332;9.860;2022-09-19T06:25:31;2.90;;;2.33;;
2522;SDS011;1272;53.332;9.860;2022-09-19T06:28:00;2.57;;;2.40;;
2522;SDS011;1272;53.332;9.860;2022-09-19T06:30:30;10.03;;;2.83;;
2522;SDS011;1272;53.332;9.860;2022-09-19T06:32:56;8.57;;;2.73;;
2522;SDS011;1272;53.332;9.860;2022-09-19T06:35:23;5.23;;;2.40;;
2522;SDS011;1272;53.332;9.860;2022-09-19T06:37:56;4.27;;;1.90;;
2522;SDS011;1272;53.332;9.860;2022-09-19T06:40:25;8.20;;;2.87;;
2522;SDS011;1272;53.332;9.860;2022-09-19T06:43:10;4.93;;;2.57;;
2522;SDS011;1272;53.332;9.860;2022-09-19T06:45:36;8.97;;;2.70;;
2522;SDS011;1272;53.332;9.860;2022-09-19T06:48:05;2.27;;;2.07;;
2522;SDS011;1272;53.332;9.860;2022-09-19T06:50:34;6.50;;;1.90;;
2522;SDS011;1272;53.332;9.860;2022-09-19T06:53:00;3.33;;;2.23;;
2522;SDS011;1272;53.332;9.860;2022-09-19T06:55:26;4.43;;;3.63;;
2522;SDS011;1272;53.332;9.860;2022-09-19T06:57:56;7.33;;;2.93;;
2522;SDS011;1272;53.332;9.860;2022-09-19T07:00:24;5.77;;;2.50;;
2522;SDS011;1272;53.332;9.860;2022-09-19T07:03:12;6.50;;;2.53;;
2522;SDS011;1272;53.332;9.860;2022-09-19T07:05:40;2.20;;;2.10;;
2522;SDS011;1272;53.332;9.860;2022-09-19T07:08:08;7.33;;;2.03;;
2522;SDS011;1272;53.332;9.860;2022-09-19T07:10:35;3.13;;;2.20;;
2522;SDS011;1272;53.332;9.860;2022-09-19T07:13:02;7.43;;;2.20;;
2522;SDS011;1272;53.332;9.860;2022-09-19T07:15:31;5.40;;;1.97;;
2522;SDS011;1272;53.332;9.860;2022-09-19T07:17:58;9.57;;;2.40;;
2522;SDS011;1272;53.332;9.860;2022-09-19T07:20:25;4.40;;;2.20;;
2522;SDS011;1272;53.332;9.860;2022-09-19T07:25:49;6.80;;;2.53;;
2522;SDS011;1272;53.332;9.860;2022-09-19T07:28:16;11.50;;;2.70;;
2522;SDS011;1272;53.332;9.860;2022-09-19T07:30:43;10.10;;;2.60;;
2522;SDS011;1272;53.332;9.860;2022-09-19T07:33:12;4.93;;;3.17;;
2522;SDS011;1272;53.332;9.860;2022-09-19T07:35:39;5.37;;;2.23;;
2522;SDS011;1272;53.332;9.860;2022-09-19T07:38:13;10.90;;;2.57;;
2522;SDS011;1272;53.332;9.860;2022-09-19T07:40:41;13.33;;;2.83;;
2522;SDS011;1272;53.332;9.860;2022-09-19T07:43:08;6.73;;;2.47;;
2522;SDS011;1272;53.332;9.860;2022-09-19T07:45:37;7.77;;;2.57;;
2522;SDS011;1272;53.332;9.860;2022-09-19T07:48:06;9.17;;;2.60;;
2522;SDS011;1272;53.332;9.860;2022-09-19T07:50:32;9.37;;;2.53;;
2522;SDS011;1272;53.332;9.860;2022-09-19T07:52:58;6.47;;;3.03;;
2522;SDS011;1272;53.332;9.860;2022-09-19T07:55:25;7.40;;;2.10;;
2522;SDS011;1272;53.332;9.860;2022-09-19T07:57:51;9.10;;;2.60;;
2522;SDS011;1272;53.332;9.860;2022-09-19T08:00:18;10.53;;;2.27;;
2522;SDS011;1272;53.332;9.860;2022-09-19T08:02:51;11.20;;;2.37;;
2522;SDS011;1272;53.332;9.860;2022-09-19T08:05:21;11.97;;;3.13;;
2522;SDS011;1272;53.332;9.860;2022-09-19T08:07:47;9.93;;;2.63;;
2522;SDS011;1272;53.332;9.860;2022-09-19T08:10:13;17.73;;;4.80;;
2522;SDS011;1272;53.332;9.860;2022-09-19T08:12:41;8.43;;;2.40;;
2522;SDS011;1272;53.332;9.860;2022-09-19T08:15:10;12.80;;;2.30;;
2522;SDS011;1272;53.332;9.860;2022-09-19T08:17:40;7.33;;;2.20;;
2522;SDS011;1272;53.332;9.860;2022-09-19T08:20:07;11.30;;;2.40;;
2522;SDS011;1272;53.332;9.860;2022-09-19T08:22:33;10.80;;;2.50;;
2522;SDS011;1272;53.332;9.860;2022-09-19T08:25:00;7.63;;;2.07;;
2522;SDS011;1272;53.332;9.860;2022-09-19T08:27:26;12.20;;;3.33;;
2522;SDS011;1272;53.332;9.860;2022-09-19T08:29:51;12.70;;;2.93;;
2522;SDS011;1272;53.332;9.860;2022-09-19T08:32:17;22.67;;;3.27;;
2522;SDS011;1272;53.332;9.860;2022-09-19T08:34:43;12.97;;;2.73;;
2522;SDS011;1272;53.332;9.860;2022-09-19T08:37:08;11.00;;;2.97;;
2522;SDS011;1272;53.332;9.860;2022-09-19T08:39:35;11.23;;;2.50;;
2522;SDS011;1272;53.332;9.860;2022-09-19T08:42:03;12.87;;;3.60;;
2522;SDS011;1272;53.332;9.860;2022-09-19T08:47:21;16.00;;;3.07;;
2522;SDS011;1272;53.332;9.860;2022-09-19T08:52:28;13.33;;;2.73;;
2522;SDS011;1272;53.332;9.860;2022-09-19T08:54:59;14.17;;;2.57;;
2522;SDS011;1272;53.332;9.860;2022-09-19T08:57:30;12.87;;;3.13;;
2522;SDS011;1272;53.332;9.860;2022-09-19T09:00:06;13.77;;;2.80;;
2522;SDS011;1272;53.332;9.860;2022-09-19T09:05:29;9.93;;;1.90;;
2522;SDS011;1272;53.332;9.860;2022-09-19T09:08:24;12.27;;;3.10;;
2522;SDS011;1272;53.332;9.860;2022-09-19T09:10:58;13.30;;;2.40;;
2522;SDS011;1272;53.332;9.860;2022-09-19T09:13:32;8.40;;;2.87;;
2522;SDS011;1272;53.332;9.860;2022-09-19T09:24:16;23.27;;;3.00;;
2522;SDS011;1272;53.332;9.860;2022-09-19T09:27:30;13.30;;;3.00;;
2522;SDS011;1272;53.332;9.860;2022-09-19T09:30:18;15.37;;;3.17;;
2522;SDS011;1272;53.332;9.860;2022-09-19T09:33:08;7.90;;;3.43;;
2522;SDS011;1272;53.332;9.860;2022-09-19T09:35:40;14.97;;;2.53;;
2522;SDS011;1272;53.332;9.860;2022-09-19T09:49:32;15.57;;;3.10;;
2522;SDS011;1272;53.332;9.860;2022-09-19T10:00:48;14.90;;;3.20;;
2522;SDS011;1272;53.332;9.860;2022-09-19T10:03:44;9.23;;;2.40;;
2522;SDS011;1272;53.332;9.860;2022-09-19T10:14:11;7.00;;;2.40;;
2522;SDS011;1272;53.332;9.860;2022-09-19T10:16:43;6.43;;;1.30;;
2522;SDS011;1272;53.332;9.860;2022-09-19T10:21:55;3.33;;;1.27;;
2522;SDS011;1272;53.332;9.860;2022-09-19T10:27:14;2.33;;;1.30;;
2522;SDS011;1272;53.332;9.860;2022-09-19T10:29:47;2.60;;;0.90;;
2522;SDS011;1272;53.332;9.860;2022-09-19T10:32:17;4.40;;;1.37;;
2522;SDS011;1272;53.332;9.860;2022-09-19T10:34:49;2.47;;;1.30;;
2522;SDS011;1272;53.332;9.860;2022-09-19T10:37:16;4.17;;;1.10;;
2522;SDS011;1272;53.332;9.860;2022-09-19T10:39:45;3.33;;;0.80;;
2522;SDS011;1272;53.332;9.860;2022-09-19T10:42:19;4.53;;;1.33;;
2522;SDS011;1272;53.332;9.860;2022-09-19T10:44:58;4.07;;;0.90;;
2522;SDS011;1272;53.332;9.860;2022-09-19T10:47:26;3.43;;;1.00;;
2522;SDS011;1272;53.332;9.860;2022-09-19T10:49:53;6.60;;;1.60;;
2522;SDS011;1272;53.332;9.860;2022-09-19T10:52:26;2.40;;;1.80;;
2522;SDS011;1272;53.332;9.860;2022-09-19T10:54:57;1.93;;;1.00;;
2522;SDS011;1272;53.332;9.860;2022-09-19T11:02:53;4.03;;;1.17;;
2522;SDS011;1272;53.332;9.860;2022-09-19T11:05:38;3.67;;;1.30;;
2522;SDS011;1272;53.332;9.860;2022-09-19T11:08:04;8.63;;;1.80;;
2522;SDS011;1272;53.332;9.860;2022-09-19T11:10:50;1.20;;;1.20;;
2522;SDS011;1272;53.332;9.860;2022-09-19T11:13:17;4.53;;;1.50;;
2522;SDS011;1272;53.332;9.860;2022-09-19T11:16:55;2.27;;;1.33;;
2522;SDS011;1272;53.332;9.860;2022-09-19T11:19:14;6.23;;;1.67;;
2522;SDS011;1272;53.332;9.860;2022-09-19T11:30:18;3.17;;;1.37;;
2522;SDS011;1272;53.332;9.860;2022-09-19T11:32:51;6.93;;;1.43;;
2522;SDS011;1272;53.332;9.860;2022-09-19T11:35:25;7.23;;;1.70;;
2522;SDS011;1272;53.332;9.860;2022-09-19T12:00:03;3.53;;;2.00;;
2522;SDS011;1272;53.332;9.860;2022-09-19T12:13:51;7.20;;;1.80;;
2522;SDS011;1272;53.332;9.860;2022-09-19T12:16:35;18.97;;;2.43;;
2522;SDS011;1272;53.332;9.860;2022-09-19T12:22:00;4.17;;;1.60;;
2522;SDS011;1272;53.332;9.860;2022-09-19T12:27:50;4.07;;;1.70;;
2522;SDS011;1272;53.332;9.860;2022-09-19T12:30:20;6.60;;;2.63;;
2522;SDS011;1272;53.332;9.860;2022-09-19T12:36:10;5.77;;;1.87;;
2522;SDS011;1272;53.332;9.860;2022-09-19T12:38:46;5.50;;;2.10;;
2522;SDS011;1272;53.332;9.860;2022-09-19T12:41:25;5.57;;;2.00;;
2522;SDS011;1272;53.332;9.860;2022-09-19T12:44:40;8.37;;;1.80;;
2522;SDS011;1272;53.332;9.860;2022-09-19T12:46:58;5.17;;;2.20;;
2522;SDS011;1272;53.332;9.860;2022-09-19T12:52:34;7.20;;;1.80;;
2522;SDS011;1272;53.332;9.860;2022-09-19T12:55:08;5.53;;;1.80;;
2522;SDS011;1272;53.332;9.860;2022-09-19T13:00:26;5.43;;;1.40;;
2522;SDS011;1272;53.332;9.860;2022-09-19T13:03:01;8.00;;;2.60;;
2522;SDS011;1272;53.332;9.860;2022-09-19T13:05:56;3.37;;;1.63;;
2522;SDS011;1272;53.332;9.860;2022-09-19T13:08:32;6.83;;;1.30;;
2522;SDS011;1272;53.332;9.860;2022-09-19T13:11:15;2.57;;;1.60;;
2522;SDS011;1272;53.332;9.860;2022-09-19T13:13:54;4.13;;;1.47;;
2522;SDS011;1272;53.332;9.860;2022-09-19T13:16:29;2.53;;;1.30;;
2522;SDS011;1272;53.332;9.860;2022-09-19T13:18:58;8.20;;;1.93;;
2522;SDS011;1272;53.332;9.860;2022-09-19T13:21:47;6.17;;;1.40;;
2522;SDS011;1272;53.332;9.860;2022-09-19T13:27:11;4.60;;;1.83;;
2522;SDS011;1272;53.332;9.860;2022-09-19T13:32:55;2.90;;;1.63;;
2522;SDS011;1272;53.332;9.860;2022-09-19T13:35:17;4.50;;;1.53;;
2522;SDS011;1272;53.332;9.860;2022-09-19T13:37:52;4.13;;;1.67;;
2522;SDS011;1272;53.332;9.860;2022-09-19T13:40:28;6.77;;;2.17;;
2522;SDS011;1272;53.332;9.860;2022-09-19T13:51:07;4.03;;;1.63;;
2522;SDS011;1272;53.332;9.860;2022-09-19T13:53:40;6.10;;;1.67;;
2522;SDS011;1272;53.332;9.860;2022-09-19T14:01:39;1.97;;;1.50;;
2522;SDS011;1272;53.332;9.860;2022-09-19T14:04:17;5.23;;;1.60;;
2522;SDS011;1272;53.332;9.860;2022-09-19T14:07:02;6.00;;;1.53;;
2522;SDS011;1272;53.332;9.860;2022-09-19T14:09:39;10.67;;;1.70;;
2522;SDS011;1272;53.332;9.860;2022-09-19T14:14:59;2.27;;;1.37;;
2522;SDS011;1272;53.332;9.860;2022-09-19T14:17:26;9.43;;;1.90;;
2522;SDS011;1272;53.332;9.860;2022-09-19T14:19:56;6.63;;;1.83;;
2522;SDS011;1272;53.332;9.860;2022-09-19T14:25:02;5.23;;;2.10;;
2522;SDS011;1272;53.332;9.860;2022-09-19T14:27:59;8.27;;;1.90;;
2522;SDS011;1272;53.332;9.860;2022-09-19T14:36:13;4.73;;;1.70;;
2522;SDS011;1272;53.332;9.860;2022-09-19T14:38:52;9.67;;;2.30;;
2522;SDS011;1272;53.332;9.860;2022-09-19T14:41:54;6.67;;;2.00;;
2522;SDS011;1272;53.332;9.860;2022-09-19T14:47:38;9.80;;;1.90;;
2522;SDS011;1272;53.332;9.860;2022-09-19T14:50:19;11.47;;;2.23;;
2522;SDS011;1272;53.332;9.860;2022-09-19T14:52:54;6.40;;;1.83;;
2522;SDS011;1272;53.332;9.860;2022-09-19T14:55:46;3.57;;;1.70;;
2522;SDS011;1272;53.332;9.860;2022-09-19T14:58:21;6.93;;;2.37;;
2522;SDS011;1272;53.332;9.860;2022-09-19T15:00:55;7.10;;;2.10;;
2522;SDS011;1272;53.332;9.860;2022-09-19T15:03:27;4.07;;;2.77;;
2522;SDS011;1272;53.332;9.860;2022-09-19T15:05:52;5.80;;;1.90;;
2522;SDS011;1272;53.332;9.860;2022-09-19T15:08:28;14.60;;;2.73;;
2522;SDS011;1272;53.332;9.860;2022-09-19T15:11:02;8.17;;;2.00;;
2522;SDS011;1272;53.332;9.860;2022-09-19T15:13:29;7.37;;;2.07;;
2522;SDS011;1272;53.332;9.860;2022-09-19T15:16:04;6.23;;;2.53;;
2522;SDS011;1272;53.332;9.860;2022-09-19T15:21:06;6.23;;;1.77;;
2522;SDS011;1272;53.332;9.860;2022-09-19T15:23:34;10.70;;;2.53;;
2522;SDS011;1272;53.332;9.860;2022-09-19T15:26:03;8.97;;;2.20;;
2522;SDS011;1272;53.332;9.860;2022-09-19T15:28:32;7.37;;;2.27;;
2522;SDS011;1272;53.332;9.860;2022-09-19T15:33:37;3.80;;;1.57;;
2522;SDS011;1272;53.332;9.860;2022-09-19T15:36:04;5.80;;;1.40;;
2522;SDS011;1272;53.332;9.860;2022-09-19T15:38:34;2.70;;;1.20;;
2522;SDS011;1272;53.332;9.860;2022-09-19T15:41:03;5.13;;;1.70;;
2522;SDS011;1272;53.332;9.860;2022-09-19T15:43:29;2.53;;;1.00;;
2522;SDS011;1272;53.332;9.860;2022-09-19T15:45:57;3.93;;;1.47;;
2522;SDS011;1272;53.332;9.860;2022-09-19T15:48:29;2.90;;;0.90;;
2522;SDS011;1272;53.332;9.860;2022-09-19T15:51:07;1.00;;;0.70;;
2522;SDS011;1272;53.332;9.860;2022-09-19T15:53:53;6.90;;;0.87;;
2522;SDS011;1272;53.332;9.860;2022-09-19T15:56:20;1.23;;;0.67;;
2522;SDS011;1272;53.332;9.860;2022-09-19T15:58:58;0.50;;;0.50;;
2522;SDS011;1272;53.332;9.860;2022-09-19T16:06:36;0.77;;;0.77;;
2522;SDS011;1272;53.332;9.860;2022-09-19T16:10:08;0.60;;;0.60;;
2522;SDS011;1272;53.332;9.860;2022-09-19T16:14:45;0.50;;;0.50;;
2522;SDS011;1272;53.332;9.860;2022-09-19T16:17:18;0.73;;;0.60;;
2522;SDS011;1272;53.332;9.860;2022-09-19T16:19:47;0.57;;;0.57;;
2522;SDS011;1272;53.332;9.860;2022-09-19T16:22:21;2.33;;;0.53;;
2522;SDS011;1272;53.332;9.860;2022-09-19T16:24:53;1.90;;;0.63;;
2522;SDS011;1272;53.332;9.860;2022-09-19T16:27:30;2.27;;;0.70;;
2522;SDS011;1272;53.332;9.860;2022-09-19T16:29:56;1.33;;;0.70;;
2522;SDS011;1272;53.332;9.860;2022-09-19T16:32:25;0.90;;;0.67;;
2522;SDS011;1272;53.332;9.860;2022-09-19T16:34:55;0.60;;;0.60;;
2522;SDS011;1272;53.332;9.860;2022-09-19T16:37:30;2.20;;;1.53;;
2522;SDS011;1272;53.332;9.860;2022-09-19T16:39:59;2.63;;;1.10;;
2522;SDS011;1272;53.332;9.860;2022-09-19T16:42:28;1.53;;;1.00;;
2522;SDS011;1272;53.332;9.860;2022-09-19T16:45:15;3.00;;;1.40;;
2522;SDS011;1272;53.332;9.860;2022-09-19T16:47:45;3.97;;;1.53;;
2522;SDS011;1272;53.332;9.860;2022-09-19T16:50:13;5.37;;;1.70;;
2522;SDS011;1272;53.332;9.860;2022-09-19T16:52:48;5.63;;;1.40;;
2522;SDS011;1272;53.332;9.860;2022-09-19T16:55:25;7.17;;;1.47;;
2522;SDS011;1272;53.332;9.860;2022-09-19T16:58:03;5.83;;;1.80;;
2522;SDS011;1272;53.332;9.860;2022-09-19T17:00:39;5.17;;;1.50;;
2522;SDS011;1272;53.332;9.860;2022-09-19T17:03:05;7.00;;;2.83;;
2522;SDS011;1272;53.332;9.860;2022-09-19T17:05:31;5.40;;;2.10;;
2522;SDS011;1272;53.332;9.860;2022-09-19T17:07:59;9.03;;;2.20;;
2522;SDS011;1272;53.332;9.860;2022-09-19T17:10:25;13.10;;;1.90;;
2522;SDS011;1272;53.332;9.860;2022-09-19T17:12:52;5.13;;;3.40;;
2522;SDS011;1272;53.332;9.860;2022-09-19T17:15:34;4.73;;;1.60;;
2522;SDS011;1272;53.332;9.860;2022-09-19T17:18:06;6.50;;;1.60;;
2522;SDS011;1272;53.332;9.860;2022-09-19T17:20:32;5.17;;;1.83;;
2522;SDS011;1272;53.332;9.860;2022-09-19T17:23:03;8.50;;;1.73;;
2522;SDS011;1272;53.332;9.860;2022-09-19T17:25:43;11.40;;;2.80;;
2522;SDS011;1272;53.332;9.860;2022-09-19T17:28:16;13.77;;;2.37;;
2522;SDS011;1272;53.332;9.860;2022-09-19T17:30:43;6.10;;;1.93;;
2522;SDS011;1272;53.332;9.860;2022-09-19T17:33:11;6.10;;;1.60;;
2522;SDS011;1272;53.332;9.860;2022-09-19T17:35:37;5.90;;;2.10;;
2522;SDS011;1272;53.332;9.860;2022-09-19T17:38:04;5.27;;;1.47;;
2522;SDS011;1272;53.332;9.860;2022-09-19T17:40:29;6.50;;;1.47;;
2522;SDS011;1272;53.332;9.860;2022-09-19T17:42:59;12.70;;;2.70;;
2522;SDS011;1272;53.332;9.860;2022-09-19T17:45:27;11.43;;;2.10;;
2522;SDS011;1272;53.332;9.860;2022-09-19T17:47:56;6.73;;;2.17;;
2522;SDS011;1272;53.332;9.860;2022-09-19T17:50:24;8.50;;;2.23;;
2522;SDS011;1272;53.332;9.860;2022-09-19T17:52:50;4.67;;;1.93;;
2522;SDS011;1272;53.332;9.860;2022-09-19T17:55:16;3.07;;;1.63;;
2522;SDS011;1272;53.332;9.860;2022-09-19T17:57:42;7.90;;;1.80;;
2522;SDS011;1272;53.332;9.860;2022-09-19T18:00:08;6.30;;;2.43;;
2522;SDS011;1272;53.332;9.860;2022-09-19T18:02:34;9.30;;;2.07;;
2522;SDS011;1272;53.332;9.860;2022-09-19T18:05:18;8.70;;;1.80;;
2522;SDS011;1272;53.332;9.860;2022-09-19T18:07:47;7.60;;;2.00;;
2522;SDS011;1272;53.332;9.860;2022-09-19T18:10:12;4.70;;;1.77;;
2522;SDS011;1272;53.332;9.860;2022-09-19T18:12:38;5.20;;;1.83;;
2522;SDS011;1272;53.332;9.860;2022-09-19T18:15:04;10.60;;;2.20;;
2522;SDS011;1272;53.332;9.860;2022-09-19T18:17:31;5.23;;;1.90;;
2522;SDS011;1272;53.332;9.860;2022-09-19T18:19:59;4.63;;;2.07;;
2522;SDS011;1272;53.332;9.860;2022-09-19T18:22:25;7.90;;;2.10;;
2522;SDS011;1272;53.332;9.860;2022-09-19T18:24:51;4.53;;;2.10;;
2522;SDS011;1272;53.332;9.860;2022-09-19T18:27:17;6.57;;;2.27;;
2522;SDS011;1272;53.332;9.860;2022-09-19T18:29:43;5.37;;;1.97;;
2522;SDS011;1272;53.332;9.860;2022-09-19T18:32:08;7.30;;;2.30;;
2522;SDS011;1272;53.332;9.860;2022-09-19T18:34:34;5.37;;;2.33;;
2522;SDS011;1272;53.332;9.860;2022-09-19T18:37:00;7.00;;;2.30;;
2522;SDS011;1272;53.332;9.860;2022-09-19T18:39:26;10.50;;;2.37;;
2522;SDS011;1272;53.332;9.860;2022-09-19T18:41:51;6.67;;;2.17;;
2522;SDS011;1272;53.332;9.860;2022-09-19T18:44:17;7.23;;;1.97;;
2522;SDS011;1272;53.332;9.860;2022-09-19T18:46:43;7.07;;;1.77;;
2522;SDS011;1272;53.332;9.860;2022-09-19T18:49:10;8.03;;;2.30;;
2522;SDS011;1272;53.332;9.860;2022-09-19T18:51:36;9.83;;;1.77;;
2522;SDS011;1272;53.332;9.860;2022-09-19T18:54:02;3.30;;;2.10;;
2522;SDS011;1272;53.332;9.860;2022-09-19T18:56:28;9.77;;;1.97;;
2522;SDS011;1272;53.332;9.860;2022-09-19T18:58:54;4.60;;;1.87;;